createdAt,value
2018-07-07T00:01:00.792Z,42.41
2018-07-07T00:03:26.748Z,42.68
2018-07-07T00:05:52.728Z,42.64
2018-07-07T00:08:18.686Z,42.12
2018-07-07T00:10:44.632Z,42.49
2018-07-07T00:13:10.559Z,42.66
2018-07-07T00:15:36.493Z,42.53
2018-07-07T00:18:02.451Z,42.77
2018-07-07T00:20:28.414Z,42.80
2018-07-07T00:22:54.390Z,43.14
2018-07-07T00:25:20.331Z,42.00
2018-07-07T00:27:46.289Z,42.63
2018-07-07T00:30:12.216Z,43.08
2018-07-07T00:32:38.179Z,42.24
2018-07-07T00:35:04.125Z,41.77
2018-07-07T00:37:30.078Z,41.01
2018-07-07T00:39:56.005Z,42.12
2018-07-07T00:42:21.979Z,41.28
2018-07-07T00:44:47.932Z,42.86
2018-07-07T00:47:13.876Z,41.91
2018-07-07T00:49:39.825Z,43.60
2018-07-07T00:52:05.796Z,44.63
2018-07-07T00:54:31.930Z,44.26
2018-07-07T00:56:57.814Z,42.71
2018-07-07T00:59:23.838Z,44.11
2018-07-07T01:01:49.768Z,44.40
2018-07-07T01:04:15.703Z,44.76
2018-07-07T01:06:41.654Z,44.39
2018-07-07T01:09:07.636Z,44.47
2018-07-07T01:11:33.587Z,43.95
2018-07-07T01:13:59.584Z,44.09
2018-07-07T01:16:25.554Z,44.25
2018-07-07T01:18:51.508Z,43.61
2018-07-07T01:21:17.439Z,43.87
2018-07-07T01:23:43.406Z,42.30
2018-07-07T01:26:09.373Z,42.28
2018-07-07T01:28:35.328Z,41.04
2018-07-07T01:31:01.289Z,42.30
2018-07-07T01:33:27.267Z,41.89
2018-07-07T01:35:53.235Z,42.32
2018-07-07T01:38:19.205Z,41.74
2018-07-07T01:40:45.140Z,42.79
2018-07-07T01:43:11.112Z,42.26
2018-07-07T01:45:37.080Z,41.73
2018-07-07T01:48:03.038Z,42.44
2018-07-07T01:50:28.978Z,43.06
2018-07-07T01:52:54.931Z,42.69
2018-07-07T01:55:20.896Z,42.03
2018-07-07T01:57:46.836Z,44.07
2018-07-07T02:00:12.793Z,44.52
2018-07-07T02:02:38.738Z,44.04
2018-07-07T02:05:04.668Z,43.39
2018-07-07T02:07:30.622Z,42.57
2018-07-07T02:09:56.581Z,42.42
2018-07-07T02:12:22.565Z,42.48
2018-07-07T02:14:48.500Z,42.09
2018-07-07T02:17:14.451Z,41.80
2018-07-07T02:19:40.399Z,42.74
2018-07-07T02:22:06.361Z,41.62
2018-07-07T02:24:32.281Z,40.33
2018-07-07T02:26:58.220Z,41.73
2018-07-07T02:29:24.170Z,41.19
2018-07-07T02:31:50.116Z,41.56
2018-07-07T02:34:16.054Z,40.69
2018-07-07T02:36:41.990Z,40.50
2018-07-07T02:39:07.950Z,39.03
2018-07-07T02:41:33.897Z,40.32
2018-07-07T02:43:59.870Z,40.01
2018-07-07T02:46:25.840Z,40.29
2018-07-07T02:48:51.820Z,39.85
2018-07-07T02:51:17.768Z,39.91
2018-07-07T02:53:43.759Z,39.59
2018-07-07T02:56:09.689Z,39.64
2018-07-07T02:58:35.663Z,40.01
2018-07-07T03:01:01.616Z,40.01
2018-07-07T03:03:27.584Z,40.86
2018-07-07T03:05:53.532Z,39.84
2018-07-07T03:08:19.511Z,40.62
2018-07-07T03:10:45.455Z,40.35
2018-07-07T03:13:11.422Z,39.82
2018-07-07T03:15:37.376Z,40.13
2018-07-07T03:18:03.304Z,40.63
2018-07-07T03:20:29.323Z,40.58
2018-07-07T03:22:55.293Z,41.63
2018-07-07T03:25:21.222Z,40.47
2018-07-07T03:27:47.175Z,40.26
2018-07-07T03:30:13.128Z,40.77
2018-07-07T03:32:39.080Z,39.93
2018-07-07T03:35:05.035Z,40.84
2018-07-07T03:37:31.014Z,40.04
2018-07-07T03:39:56.950Z,39.58
2018-07-07T03:42:22.903Z,39.48
2018-07-07T03:44:48.856Z,39.32
2018-07-07T03:47:14.787Z,38.85
2018-07-07T03:49:40.737Z,38.79
2018-07-07T03:52:06.689Z,39.46
2018-07-07T03:54:32.633Z,39.60
2018-07-07T03:56:58.577Z,39.53
2018-07-07T03:59:24.559Z,38.13
2018-07-07T04:01:50.517Z,37.82
2018-07-07T04:04:16.511Z,38.73
2018-07-07T04:06:42.441Z,38.16
2018-07-07T04:09:08.417Z,38.85
2018-07-07T04:11:34.371Z,38.22
2018-07-07T04:14:00.326Z,38.69
2018-07-07T04:16:26.266Z,38.36
2018-07-07T04:18:52.243Z,38.24
2018-07-07T04:21:18.178Z,38.21
2018-07-07T04:23:44.144Z,36.81
2018-07-07T04:26:10.107Z,38.35
2018-07-07T04:28:36.050Z,38.17
2018-07-07T04:31:02.016Z,36.84
2018-07-07T04:33:27.959Z,36.66
2018-07-07T04:35:53.915Z,35.69
2018-07-07T04:38:19.852Z,36.60
2018-07-07T04:40:45.818Z,35.34
2018-07-07T04:43:11.780Z,35.32
2018-07-07T04:45:37.740Z,36.35
2018-07-07T04:48:03.719Z,35.69
2018-07-07T04:50:29.691Z,35.24
2018-07-07T04:52:55.631Z,35.94
2018-07-07T04:55:21.601Z,35.48
2018-07-07T04:57:47.548Z,34.57
2018-07-07T05:00:13.503Z,35.56
2018-07-07T05:02:39.442Z,35.44
2018-07-07T05:05:05.399Z,34.99
2018-07-07T05:07:31.341Z,35.15
2018-07-07T05:09:57.276Z,35.46
2018-07-07T05:12:23.196Z,35.15
2018-07-07T05:14:49.153Z,35.79
2018-07-07T05:17:15.184Z,36.31
2018-07-07T05:19:41.122Z,36.17
2018-07-07T05:22:07.058Z,36.83
2018-07-07T05:24:32.993Z,35.49
2018-07-07T05:26:58.934Z,37.17
2018-07-07T05:29:24.871Z,36.90
2018-07-07T05:31:50.902Z,35.95
2018-07-07T05:34:16.828Z,36.19
2018-07-07T05:36:42.827Z,35.47
2018-07-07T05:39:08.780Z,34.42
2018-07-07T05:41:34.712Z,34.22
2018-07-07T05:44:00.667Z,35.56
2018-07-07T05:46:26.627Z,34.77
2018-07-07T05:48:52.571Z,35.59
2018-07-07T05:51:18.536Z,36.11
2018-07-07T05:53:44.464Z,34.93
2018-07-07T05:56:10.440Z,34.57
2018-07-07T05:58:36.375Z,35.57
2018-07-07T06:01:02.329Z,34.96
2018-07-07T06:03:28.276Z,34.85
2018-07-07T06:05:54.236Z,35.29
2018-07-07T06:08:20.188Z,33.74
2018-07-07T06:10:46.177Z,34.73
2018-07-07T06:13:12.166Z,34.73
2018-07-07T06:15:38.151Z,34.32
2018-07-07T06:18:04.205Z,34.00
2018-07-07T06:20:30.141Z,33.87
2018-07-07T06:22:56.111Z,33.63
2018-07-07T06:25:24.093Z,33.93
2018-07-07T06:27:50.022Z,33.44
2018-07-07T06:30:15.976Z,33.88
2018-07-07T06:32:41.943Z,32.42
2018-07-07T06:35:07.899Z,33.11
2018-07-07T06:37:33.859Z,32.74
2018-07-07T06:39:59.812Z,32.76
2018-07-07T06:42:25.756Z,32.24
2018-07-07T06:44:51.694Z,31.64
2018-07-07T06:47:17.644Z,32.71
2018-07-07T06:49:43.599Z,31.92
2018-07-07T06:52:09.563Z,33.07
2018-07-07T06:54:35.528Z,32.74
2018-07-07T06:57:01.494Z,33.46
2018-07-07T06:59:27.428Z,33.22
2018-07-07T07:01:53.406Z,31.52
2018-07-07T07:04:19.345Z,31.28
2018-07-07T07:06:45.293Z,30.66
2018-07-07T07:09:11.255Z,29.91
2018-07-07T07:11:37.188Z,30.26
2018-07-07T07:14:03.134Z,29.56
2018-07-07T07:16:29.157Z,28.75
2018-07-07T07:18:55.097Z,28.70
2018-07-07T07:21:21.032Z,28.69
2018-07-07T07:23:46.964Z,29.48
2018-07-07T07:26:13.053Z,29.75
2018-07-07T07:28:38.899Z,28.83
2018-07-07T07:31:04.837Z,28.72
2018-07-07T07:33:30.792Z,28.52
2018-07-07T07:35:56.747Z,28.24
2018-07-07T07:38:22.717Z,27.60
2018-07-07T07:40:48.700Z,27.12
2018-07-07T07:43:14.720Z,29.76
2018-07-07T07:45:40.771Z,28.80
2018-07-07T07:48:06.737Z,28.42
2018-07-07T07:50:32.722Z,29.23
2018-07-07T07:52:58.948Z,29.56
2018-07-07T07:55:24.915Z,28.56
2018-07-07T07:57:50.873Z,27.17
2018-07-07T08:00:16.845Z,28.21
2018-07-07T08:02:42.838Z,26.79
2018-07-07T08:05:08.992Z,28.52
2018-07-07T08:07:34.980Z,28.48
2018-07-07T08:10:00.980Z,28.89
2018-07-07T08:12:26.965Z,27.61
2018-07-07T08:14:52.948Z,27.80
2018-07-07T08:17:18.902Z,27.95
2018-07-07T08:19:44.838Z,28.15
2018-07-07T08:22:10.816Z,27.76
2018-07-07T08:24:36.813Z,27.25
2018-07-07T08:27:02.801Z,28.53
2018-07-07T08:29:28.755Z,28.43
2018-07-07T08:31:54.716Z,29.75
2018-07-07T08:34:21.010Z,29.49
2018-07-07T08:36:47.071Z,29.85
2018-07-07T08:39:13.014Z,27.97
2018-07-07T08:41:39.029Z,28.94
2018-07-07T08:44:04.985Z,29.35
2018-07-07T08:46:30.957Z,29.30
2018-07-07T08:48:56.920Z,28.11
2018-07-07T08:51:22.926Z,28.48
2018-07-07T08:53:48.884Z,30.00
2018-07-07T08:56:14.909Z,29.48
2018-07-07T08:58:40.865Z,30.63
2018-07-07T09:01:06.838Z,30.62
2018-07-07T09:03:32.928Z,32.62
2018-07-07T09:05:58.896Z,30.31
2018-07-07T09:08:24.849Z,29.37
2018-07-07T09:10:50.819Z,28.07
2018-07-07T09:13:16.814Z,27.64
2018-07-07T09:15:42.780Z,29.73
2018-07-07T09:18:08.858Z,28.61
2018-07-07T09:20:34.806Z,27.60
2018-07-07T09:23:00.802Z,28.77
2018-07-07T09:25:26.745Z,28.62
2018-07-07T09:27:52.735Z,25.91
2018-07-07T09:30:18.706Z,27.26
2018-07-07T09:32:44.756Z,28.02
2018-07-07T09:35:10.731Z,25.91
2018-07-07T09:37:36.692Z,26.53
2018-07-07T09:40:02.656Z,25.54
2018-07-07T09:42:28.606Z,26.82
2018-07-07T09:44:58.669Z,27.72
2018-07-07T09:47:24.613Z,26.57
2018-07-07T09:49:50.584Z,26.76
2018-07-07T09:52:16.552Z,26.65
2018-07-07T09:54:42.533Z,26.97
2018-07-07T09:57:08.524Z,27.21
2018-07-07T09:59:34.475Z,28.24
2018-07-07T10:02:00.533Z,28.74
2018-07-07T10:04:26.426Z,28.01
2018-07-07T10:06:52.455Z,27.34
2018-07-07T10:09:18.439Z,27.63
2018-07-07T10:11:44.397Z,26.86
2018-07-07T10:14:10.360Z,28.75
2018-07-07T10:16:36.326Z,26.69
2018-07-07T10:19:02.372Z,25.46
2018-07-07T10:21:28.320Z,27.55
2018-07-07T10:23:54.280Z,26.10
2018-07-07T10:26:20.277Z,25.07
2018-07-07T10:28:46.248Z,25.52
2018-07-07T10:31:12.217Z,24.21
2018-07-07T10:33:38.203Z,26.25
2018-07-07T10:36:04.177Z,25.98
2018-07-07T10:38:30.147Z,26.42
2018-07-07T10:40:56.125Z,26.16
2018-07-07T10:43:22.083Z,26.60
2018-07-07T10:45:48.259Z,26.87
2018-07-07T10:48:14.100Z,27.12
2018-07-07T10:50:40.078Z,26.83
2018-07-07T10:53:06.066Z,27.35
2018-07-07T10:55:32.088Z,26.96
2018-07-07T10:57:58.051Z,27.35
2018-07-07T11:00:24.014Z,25.59
2018-07-07T11:02:49.970Z,26.07
2018-07-07T11:05:15.930Z,24.87
2018-07-07T11:07:41.898Z,27.07
2018-07-07T11:10:07.865Z,27.23
2018-07-07T11:12:33.821Z,26.99
2018-07-07T11:14:59.791Z,26.11
2018-07-07T11:17:25.789Z,26.31
2018-07-07T11:19:51.816Z,27.42
2018-07-07T11:22:17.806Z,27.31
2018-07-07T11:24:43.770Z,26.80
2018-07-07T11:27:09.753Z,26.42
2018-07-07T11:29:35.833Z,26.65
2018-07-07T11:32:02.005Z,27.12
2018-07-07T11:34:27.988Z,26.15
2018-07-07T11:36:54.017Z,25.64
2018-07-07T11:39:19.988Z,25.31
2018-07-07T11:41:46.032Z,26.04
2018-07-07T11:44:11.985Z,26.83
2018-07-07T11:46:37.945Z,26.43
2018-07-07T11:49:03.972Z,26.79
2018-07-07T11:51:29.928Z,26.39
2018-07-07T11:53:55.917Z,26.25
2018-07-07T11:56:21.899Z,26.24
2018-07-07T11:58:47.866Z,26.71
2018-07-07T12:01:13.846Z,25.63
2018-07-07T12:03:39.844Z,26.61
2018-07-07T12:06:05.833Z,26.88
2018-07-07T12:08:31.956Z,24.60
2018-07-07T12:10:57.869Z,26.26
2018-07-07T12:13:23.889Z,25.45
2018-07-07T12:15:49.877Z,26.20
2018-07-07T12:18:15.828Z,25.37
2018-07-07T12:20:41.856Z,26.13
2018-07-07T12:23:07.860Z,25.99
2018-07-07T12:25:34.069Z,26.51
2018-07-07T12:28:00.077Z,26.50
2018-07-07T12:30:26.052Z,25.69
2018-07-07T12:32:52.050Z,26.85
2018-07-07T12:35:18.752Z,24.84
2018-07-07T12:37:45.758Z,25.41
2018-07-07T12:40:11.706Z,26.30
2018-07-07T12:42:37.757Z,26.54
2018-07-07T12:45:03.789Z,26.12
2018-07-07T12:47:29.753Z,26.20
2018-07-07T12:49:55.761Z,27.94
2018-07-07T12:52:21.716Z,26.61
2018-07-07T12:54:47.738Z,25.46
2018-07-07T12:57:13.719Z,25.88
2018-07-07T12:59:39.713Z,26.94
2018-07-07T13:02:05.661Z,26.17
2018-07-07T13:04:32.691Z,26.85
2018-07-07T13:06:58.689Z,26.54
2018-07-07T13:09:25.050Z,26.84
2018-07-07T13:11:53.170Z,26.18
2018-07-07T13:14:19.137Z,26.12
2018-07-07T13:16:46.195Z,27.78
2018-07-07T13:19:15.619Z,28.49
2018-07-07T13:21:43.691Z,27.39
2018-07-07T13:24:09.653Z,27.45
2018-07-07T13:26:35.692Z,27.81
2018-07-07T13:29:01.694Z,27.04
2018-07-07T13:31:27.746Z,26.86
2018-07-07T13:38:57.665Z,26.27
2018-07-07T13:41:23.700Z,26.47
2018-07-07T13:43:53.721Z,28.84
2018-07-07T13:46:20.814Z,27.85
2018-07-07T13:48:46.902Z,28.04
2018-07-07T13:51:12.900Z,27.24
2018-07-07T13:53:39.977Z,27.93
2018-07-07T13:56:07.009Z,27.97
2018-07-07T13:58:33.025Z,28.66
2018-07-07T14:00:58.966Z,28.35
2018-07-07T14:03:24.987Z,28.14
2018-07-07T14:05:50.962Z,27.70
2018-07-07T14:08:16.942Z,27.64
2018-07-07T14:10:42.936Z,27.19
2018-07-07T14:13:09.081Z,28.21
2018-07-07T14:15:35.091Z,28.15
2018-07-07T14:18:01.021Z,28.62
2018-07-07T14:20:26.980Z,27.41
2018-07-07T14:22:52.992Z,28.63
2018-07-07T14:25:18.980Z,29.11
2018-07-07T14:27:44.936Z,27.31
2018-07-07T14:30:10.897Z,29.43
2018-07-07T14:32:36.880Z,28.74
2018-07-07T14:35:02.865Z,27.24
2018-07-07T14:37:29.002Z,27.62
2018-07-07T14:39:54.930Z,26.25
2018-07-07T14:42:20.977Z,27.88
2018-07-07T14:44:46.956Z,29.26
2018-07-07T14:47:12.982Z,30.13
2018-07-07T14:49:38.952Z,27.81
2018-07-07T14:52:04.918Z,27.20
2018-07-07T14:54:30.862Z,28.01
2018-07-07T14:56:56.837Z,26.97
2018-07-07T14:59:22.836Z,28.51
2018-07-07T15:01:48.826Z,27.15
2018-07-07T15:04:14.784Z,28.34
2018-07-07T15:06:40.762Z,27.94
2018-07-07T15:09:06.729Z,28.82
2018-07-07T15:11:32.671Z,28.27
2018-07-07T15:13:58.636Z,29.75
2018-07-07T15:16:24.578Z,28.86
2018-07-07T15:18:50.541Z,27.18
2018-07-07T15:21:16.534Z,28.56
2018-07-07T15:23:42.576Z,31.58
2018-07-07T15:26:08.562Z,31.02
2018-07-07T15:28:34.890Z,30.29
2018-07-07T15:31:00.850Z,28.10
2018-07-07T15:33:26.821Z,30.05
2018-07-07T15:35:52.754Z,28.23
2018-07-07T15:38:18.732Z,29.81
2018-07-07T15:40:44.689Z,27.78
2018-07-07T15:43:10.660Z,28.78
2018-07-07T15:45:36.602Z,28.08
2018-07-07T15:48:02.600Z,28.55
2018-07-07T15:50:28.584Z,28.60
2018-07-07T15:52:54.545Z,28.33
2018-07-07T15:55:20.584Z,29.06
2018-07-07T15:57:46.535Z,29.67
2018-07-07T16:00:12.670Z,29.91
2018-07-07T16:02:38.654Z,31.26
2018-07-07T16:05:04.656Z,28.87
2018-07-07T16:07:30.677Z,30.31
2018-07-07T16:09:56.752Z,29.23
2018-07-07T16:12:22.693Z,29.08
2018-07-07T16:14:48.651Z,30.17
2018-07-07T16:17:14.626Z,29.40
2018-07-07T16:19:40.625Z,29.22
2018-07-07T16:22:06.623Z,27.77
2018-07-07T16:24:32.593Z,29.34
2018-07-07T16:26:58.622Z,28.39
2018-07-07T16:29:24.584Z,29.22
2018-07-07T16:31:50.562Z,29.10
2018-07-07T16:34:16.516Z,29.91
2018-07-07T16:36:42.463Z,29.99
2018-07-07T16:39:08.433Z,29.57
2018-07-07T16:41:35.441Z,28.82
2018-07-07T16:44:01.423Z,27.74
2018-07-07T16:46:27.411Z,29.72
2018-07-07T16:48:53.381Z,29.87
2018-07-07T16:51:19.319Z,29.83
2018-07-07T16:53:45.273Z,27.58
2018-07-07T16:56:11.238Z,27.59
2018-07-07T16:58:37.219Z,28.66
2018-07-07T17:01:03.198Z,27.69
2018-07-07T17:03:29.181Z,27.97
2018-07-07T17:05:55.169Z,27.19
2018-07-07T17:08:21.181Z,28.84
2018-07-07T17:10:47.131Z,26.92
2018-07-07T17:13:13.128Z,28.01
2018-07-07T17:15:39.131Z,27.44
2018-07-07T17:18:05.150Z,27.39
2018-07-07T17:20:31.132Z,29.15
2018-07-07T17:22:57.124Z,28.68
2018-07-07T17:25:23.160Z,27.63
2018-07-07T17:27:49.130Z,27.94
2018-07-07T17:30:15.212Z,28.14
2018-07-07T17:32:41.142Z,27.66
2018-07-07T17:35:07.140Z,28.28
2018-07-07T17:37:33.119Z,28.25
2018-07-07T17:39:59.106Z,28.23
2018-07-07T17:42:25.109Z,28.69
2018-07-07T17:44:51.080Z,28.15
2018-07-07T17:47:17.115Z,27.81
2018-07-07T17:49:43.083Z,28.46
2018-07-07T17:52:09.061Z,27.66
2018-07-07T17:54:35.021Z,27.69
2018-07-07T17:57:01.060Z,28.00
2018-07-07T17:59:27.022Z,29.03
2018-07-07T18:01:52.981Z,28.25
2018-07-07T18:04:18.970Z,28.93
2018-07-07T18:06:44.927Z,28.77
2018-07-07T18:09:10.909Z,29.11
2018-07-07T18:11:36.885Z,28.15
2018-07-07T18:14:02.892Z,28.97
2018-07-07T18:16:28.826Z,29.21
2018-07-07T18:18:54.814Z,28.62
2018-07-07T18:21:20.810Z,28.11
2018-07-07T18:23:46.775Z,27.82
2018-07-07T18:26:12.752Z,29.09
2018-07-07T18:28:38.714Z,28.67
2018-07-07T18:31:04.682Z,28.09
2018-07-07T18:33:30.716Z,28.17
2018-07-07T18:35:56.665Z,28.16
2018-07-07T18:38:22.702Z,28.77
2018-07-07T18:40:48.581Z,28.70
2018-07-07T18:43:15.315Z,29.74
2018-07-07T18:45:42.334Z,30.88
2018-07-07T18:48:12.634Z,32.39
2018-07-07T18:50:39.714Z,32.89
2018-07-07T18:53:05.769Z,32.82
2018-07-07T18:55:31.817Z,31.71
2018-07-07T18:57:57.777Z,30.28
2018-07-07T19:00:23.800Z,33.02
2018-07-07T19:02:49.869Z,32.41
2018-07-07T19:05:15.854Z,31.09
2018-07-07T19:07:41.962Z,31.11
2018-07-07T19:10:09.031Z,31.53
2018-07-07T19:12:35.011Z,30.60
2018-07-07T19:17:38.361Z,31.71
2018-07-07T19:20:04.352Z,31.30
2018-07-07T19:22:30.413Z,31.73
2018-07-07T19:24:56.493Z,30.77
2018-07-07T19:27:26.997Z,31.51
2018-07-07T19:29:52.991Z,32.29
2018-07-07T19:32:19.001Z,31.22
2018-07-07T19:34:45.041Z,31.67
2018-07-07T19:37:10.983Z,30.99
2018-07-07T19:39:37.085Z,32.35
2018-07-07T19:42:03.043Z,31.94
2018-07-07T19:44:29.082Z,31.13
2018-07-07T19:46:55.048Z,31.67
2018-07-07T19:49:21.002Z,32.21
2018-07-07T19:51:47.625Z,31.42
2018-07-07T19:54:13.625Z,31.18
2018-07-07T19:56:39.601Z,31.27
2018-07-07T19:59:05.580Z,31.99
2018-07-07T20:01:31.681Z,32.11
2018-07-07T20:03:57.633Z,31.66
2018-07-07T20:06:23.588Z,32.15
2018-07-07T20:08:49.617Z,32.62
2018-07-07T20:11:15.584Z,32.16
2018-07-07T20:13:43.661Z,32.13
2018-07-07T20:16:09.659Z,31.92
2018-07-07T20:18:35.665Z,32.39
2018-07-07T20:21:01.668Z,32.58
2018-07-07T20:23:30.925Z,33.22
2018-07-07T20:25:57.035Z,33.43
2018-07-07T20:28:23.072Z,33.68
2018-07-07T20:30:49.033Z,33.33
2018-07-07T20:33:15.122Z,33.51
2018-07-07T20:35:41.131Z,33.47
2018-07-07T20:38:07.116Z,32.81
2018-07-07T20:40:33.104Z,34.64
2018-07-07T20:42:59.105Z,34.56
2018-07-07T20:45:25.105Z,33.93
2018-07-07T20:47:51.319Z,33.75
2018-07-07T20:50:17.307Z,34.65
2018-07-07T20:52:46.692Z,34.30
2018-07-07T20:55:12.656Z,34.05
2018-07-07T20:57:38.642Z,35.32
2018-07-07T21:00:04.605Z,34.32
2018-07-07T21:02:30.529Z,34.91
2018-07-07T21:04:56.475Z,35.08
2018-07-07T21:07:22.458Z,34.41
2018-07-07T21:09:48.441Z,34.52
2018-07-07T21:12:14.384Z,34.93
2018-07-07T21:14:40.336Z,34.83
2018-07-07T21:17:06.324Z,34.77
2018-07-07T21:19:32.268Z,35.46
2018-07-07T21:21:58.229Z,35.53
2018-07-07T21:24:24.246Z,35.52
2018-07-07T21:26:50.707Z,35.15
2018-07-07T21:29:16.709Z,35.52
2018-07-07T21:31:42.732Z,35.61
2018-07-07T21:34:08.706Z,35.24
2018-07-07T21:36:34.870Z,35.71
2018-07-07T21:39:00.852Z,36.20
2018-07-07T21:41:26.923Z,35.71
2018-07-07T21:43:52.884Z,35.91
2018-07-07T21:46:18.876Z,36.12
2018-07-07T21:48:44.852Z,35.41
2018-07-07T21:51:10.829Z,35.75
2018-07-07T21:53:36.800Z,35.54
2018-07-07T21:56:02.789Z,36.27
2018-07-07T21:58:28.762Z,35.46
2018-07-07T22:00:54.728Z,36.13
2018-07-07T22:03:20.691Z,36.29
2018-07-07T22:05:46.672Z,36.38
2018-07-07T22:08:12.653Z,36.40
2018-07-07T22:10:38.608Z,35.70
2018-07-07T22:13:04.610Z,35.94
2018-07-07T22:15:30.576Z,36.74
2018-07-07T22:17:56.557Z,35.89
2018-07-07T22:20:22.516Z,36.27
2018-07-07T22:22:48.479Z,35.85
2018-07-07T22:25:14.462Z,37.05
2018-07-07T22:27:40.444Z,36.68
2018-07-07T22:30:06.416Z,36.32
2018-07-07T22:32:32.397Z,37.48
2018-07-07T22:34:58.352Z,37.61
2018-07-07T22:37:24.312Z,36.72
2018-07-07T22:39:50.250Z,36.65
2018-07-07T22:42:16.187Z,37.10
2018-07-07T22:44:42.143Z,37.21
2018-07-07T22:47:08.085Z,37.01
2018-07-07T22:49:34.027Z,37.61
2018-07-07T22:51:59.975Z,37.46
2018-07-07T22:54:26.006Z,37.85
2018-07-07T22:56:51.984Z,38.25
2018-07-07T22:59:17.929Z,37.78
2018-07-07T23:01:43.881Z,37.57
2018-07-07T23:04:09.856Z,37.95
2018-07-07T23:06:35.796Z,38.03
2018-07-07T23:09:01.800Z,38.30
2018-07-07T23:11:27.775Z,38.09
2018-07-07T23:13:53.745Z,38.37
2018-07-07T23:16:19.701Z,38.50
2018-07-07T23:18:45.677Z,38.23
2018-07-07T23:21:11.614Z,39.09
2018-07-07T23:23:37.586Z,38.11
2018-07-07T23:26:03.573Z,38.86
2018-07-07T23:28:29.567Z,38.62
2018-07-07T23:30:55.529Z,39.05
2018-07-07T23:33:21.476Z,40.35
2018-07-07T23:35:47.430Z,39.14
2018-07-07T23:38:13.378Z,39.88
2018-07-07T23:40:39.331Z,39.40
2018-07-07T23:43:05.293Z,39.91
2018-07-07T23:45:31.229Z,39.63
2018-07-07T23:47:57.227Z,39.34
2018-07-07T23:50:23.204Z,39.57
2018-07-07T23:52:49.189Z,40.00
2018-07-07T23:55:15.135Z,40.55
2018-07-07T23:57:41.093Z,40.33
